Time;durP1;ratioP1;P1;durP2;ratioP2;P2;SDS_P1;SDS_P2;PMS_P1;PMS_P2;Temp;Humidity;BMP_temperature;BMP_pressure;BME280_temperature;BME280_humidity;BME280_pressure;Samples;Min_cycle;Max_cycle;Signal;HPM_P1;HPM_P2
2021/12/07 00:02:16;;;;;;;21.23;2.53;;;4.40;99.90;;;;;;5149984;27;20038;-87
2021/12/07 00:04:44;;;;;;;18.15;2.45;;;4.40;99.90;;;;;;5158638;27;20039;-86
2021/12/07 00:07:11;;;;;;;16.08;3.15;;;4.50;99.90;;;;;;5158088;27;20485;-86
2021/12/07 00:09:38;;;;;;;15.45;3.25;;;4.50;99.90;;;;;;5159422;27;20421;-87
2021/12/07 00:12:06;;;;;;;27.35;3.45;;;4.50;99.90;;;;;;5159738;27;20492;-86
2021/12/07 00:14:39;;;;;;;21.77;6.20;;;4.60;99.90;;;;;;5141694;27;20057;-85
2021/12/07 00:17:07;;;;;;;21.65;2.80;;;4.60;99.90;;;;;;5160825;27;20138;-86
2021/12/07 00:19:35;;;;;;;19.55;3.25;;;4.60;99.90;;;;;;5157752;27;20042;-86
2021/12/07 00:22:04;;;;;;;18.85;2.80;;;4.60;99.90;;;;;;5157605;27;20038;-86
2021/12/07 00:24:31;;;;;;;19.75;3.25;;;4.60;99.90;;;;;;5157977;27;20081;-86
2021/12/07 00:26:59;;;;;;;13.02;2.80;;;4.60;99.90;;;;;;5157993;27;20051;-87
2021/12/07 00:29:27;;;;;;;15.57;4.40;;;4.60;99.90;;;;;;5158015;27;20484;-86
2021/12/07 00:32:08;;;;;;;16.23;2.43;;;4.60;99.90;;;;;;5149135;27;20503;-86
2021/12/07 00:34:55;;;;;;;21.13;3.80;;;4.60;99.90;;;;;;5136993;27;20128;-87
2021/12/07 00:37:22;;;;;;;15.20;2.25;;;4.70;99.90;;;;;;5137167;27;20044;-86
2021/12/07 00:39:49;;;;;;;22.33;2.70;;;4.60;99.90;;;;;;5137187;27;20047;-87
2021/12/07 00:42:16;;;;;;;18.50;2.88;;;4.60;99.90;;;;;;5148261;27;20116;-87
2021/12/07 00:44:43;;;;;;;22.73;2.88;;;4.80;99.90;;;;;;5157826;27;20092;-86
2021/12/07 00:47:10;;;;;;;23.83;2.80;;;4.60;99.90;;;;;;5139437;27;20082;-86
2021/12/07 00:49:39;;;;;;;19.38;2.72;;;4.60;99.90;;;;;;5156017;27;20043;-86
2021/12/07 00:52:07;;;;;;;16.92;3.05;;;4.50;99.90;;;;;;5136947;27;20039;-86
2021/12/07 00:54:34;;;;;;;24.60;3.25;;;4.50;99.90;;;;;;5136617;27;20043;-86
2021/12/07 00:57:02;;;;;;;19.23;2.60;;;4.40;99.90;;;;;;5136516;27;20446;-86
2021/12/07 00:59:29;;;;;;;13.80;2.78;;;4.40;99.90;;;;;;5136907;27;20054;-86
2021/12/07 01:01:56;;;;;;;12.93;2.30;;;4.30;99.90;;;;;;5156737;27;20508;-87
2021/12/07 01:04:24;;;;;;;17.00;3.35;;;4.20;99.90;;;;;;5157616;27;20087;-86
2021/12/07 01:07:03;;;;;;;13.95;3.17;;;4.20;99.90;;;;;;5157272;27;20078;-86
2021/12/07 01:09:36;;;;;;;14.68;3.10;;;4.20;99.90;;;;;;5157311;27;20477;-86
2021/12/07 01:25:54;;;;;;;15.52;3.53;;;4.00;99.90;;;;;;5135463;27;20062;-87
2021/12/07 01:28:26;;;;;;;12.60;2.83;;;4.00;99.90;;;;;;5135714;27;20050;-86
2021/12/07 01:30:58;;;;;;;21.33;4.10;;;4.00;99.90;;;;;;5135648;27;20047;-85
2021/12/07 01:33:52;;;;;;;13.20;3.50;;;4.00;99.90;;;;;;5151578;27;20117;-85
2021/12/07 01:45:01;;;;;;;13.30;2.78;;;4.30;99.90;;;;;;5135677;27;20058;-85
2021/12/07 01:47:46;;;;;;;17.20;2.58;;;4.10;99.90;;;;;;5135729;27;20051;-86
2021/12/07 02:01:11;;;;;;;13.18;2.60;;;3.40;99.90;;;;;;5135530;27;20096;-86
2021/12/07 02:03:39;;;;;;;16.67;3.10;;;3.30;99.90;;;;;;5135228;27;20082;-86
2021/12/07 02:06:09;;;;;;;14.43;2.50;;;3.20;99.90;;;;;;5153703;27;20049;-86
2021/12/07 02:08:36;;;;;;;17.48;3.85;;;3.10;99.90;;;;;;5156167;27;20450;-85
2021/12/07 02:11:05;;;;;;;14.02;2.17;;;3.10;99.90;;;;;;5155928;27;20047;-86
2021/12/07 02:16:18;;;;;;;10.40;3.15;;;3.10;99.90;;;;;;5154880;27;20107;-86
2021/12/07 02:18:46;;;;;;;11.23;2.53;;;3.00;99.90;;;;;;5156589;27;20155;-86
2021/12/07 02:21:19;;;;;;;9.40;2.22;;;3.00;99.90;;;;;;5156638;27;20038;-86
2021/12/07 02:23:46;;;;;;;10.88;2.25;;;2.90;99.90;;;;;;5156755;27;20099;-86
2021/12/07 02:26:14;;;;;;;11.48;2.22;;;2.90;99.90;;;;;;5155673;27;20458;-86
2021/12/07 02:28:41;;;;;;;16.73;2.55;;;2.80;99.90;;;;;;5155862;27;20042;-86
2021/12/07 02:31:10;;;;;;;18.25;3.15;;;2.80;99.90;;;;;;5155839;27;20039;-85
2021/12/07 02:33:37;;;;;;;15.52;2.30;;;2.80;99.90;;;;;;5155288;27;20046;-86
2021/12/07 02:36:05;;;;;;;11.00;2.58;;;2.80;99.90;;;;;;5137054;27;20488;-86
2021/12/07 02:38:34;;;;;;;13.82;2.20;;;3.00;99.90;;;;;;5134748;27;20061;-86
2021/12/07 02:41:01;;;;;;;11.48;2.25;;;2.80;99.90;;;;;;5134669;27;20107;-86
2021/12/07 02:43:28;;;;;;;17.33;2.58;;;2.80;99.90;;;;;;5134915;27;20103;-86
2021/12/07 02:45:55;;;;;;;12.88;3.30;;;2.90;99.90;;;;;;5151181;27;20070;-86
2021/12/07 02:48:23;;;;;;;23.48;2.38;;;3.40;99.90;;;;;;5155548;27;20042;-85
2021/12/07 02:50:51;;;;;;;13.88;2.15;;;3.00;99.90;;;;;;5154885;27;20481;-85
2021/12/07 02:53:21;;;;;;;7.32;2.15;;;3.00;99.90;;;;;;5155176;27;20068;-86
2021/12/07 02:55:50;;;;;;;9.32;2.58;;;3.00;99.90;;;;;;5154837;27;20050;-86
2021/12/07 02:58:17;;;;;;;16.27;4.35;;;2.90;99.90;;;;;;5134832;28;20097;-86
2021/12/07 03:00:50;;;;;;;9.85;2.33;;;2.90;99.90;;;;;;5134501;28;20039;-86
2021/12/07 03:03:18;;;;;;;14.30;2.42;;;3.00;99.90;;;;;;5134053;28;20108;-85
2021/12/07 03:05:52;;;;;;;15.95;2.80;;;2.80;99.90;;;;;;5133994;28;20043;-86
2021/12/07 03:08:53;;;;;;;26.88;4.60;;;2.70;99.90;;;;;;5139041;27;20071;-86
2021/12/07 03:27:54;;;;;;;8.68;2.20;;;2.70;99.90;;;;;;5133994;27;20089;-84
2021/12/07 03:30:21;;;;;;;10.77;2.63;;;2.70;99.90;;;;;;5134179;28;20051;-85
2021/12/07 03:32:49;;;;;;;12.68;2.22;;;2.70;99.90;;;;;;5137169;27;20040;-86
2021/12/07 03:35:16;;;;;;;15.77;2.90;;;2.70;99.90;;;;;;5154234;27;20531;-86
2021/12/07 03:37:44;;;;;;;12.88;2.72;;;2.80;99.90;;;;;;5154354;27;20047;-86
2021/12/07 03:40:12;;;;;;;9.65;2.35;;;2.70;99.90;;;;;;5135120;27;20107;-86
2021/12/07 03:42:40;;;;;;;15.73;2.70;;;2.70;99.90;;;;;;5133816;28;20047;-86
2021/12/07 03:45:10;;;;;;;12.40;2.80;;;2.70;99.90;;;;;;5133735;28;20119;-86
2021/12/07 03:47:38;;;;;;;13.30;3.13;;;2.60;99.90;;;;;;5133338;28;20043;-86
2021/12/07 03:50:06;;;;;;;6.00;1.63;;;2.60;99.90;;;;;;5145303;27;20107;-86
2021/12/07 03:52:33;;;;;;;13.90;2.20;;;2.70;99.90;;;;;;5150101;27;20047;-86
2021/12/07 03:55:01;;;;;;;17.92;3.78;;;2.80;99.90;;;;;;5157011;27;20091;-85
2021/12/07 03:57:28;;;;;;;11.32;3.05;;;2.70;99.90;;;;;;5157462;27;20401;-85
2021/12/07 03:59:55;;;;;;;12.05;2.35;;;2.80;99.90;;;;;;5158382;27;20043;-86
2021/12/07 04:02:24;;;;;;;10.40;2.33;;;3.00;99.90;;;;;;5158200;27;20492;-86
2021/12/07 04:04:58;;;;;;;9.13;2.40;;;2.80;99.90;;;;;;5157594;27;20434;-86
2021/12/07 04:07:26;;;;;;;12.88;3.03;;;2.80;99.90;;;;;;5157905;27;20457;-86
2021/12/07 04:09:53;;;;;;;13.93;2.67;;;2.80;99.90;;;;;;5158148;27;20070;-86
2021/12/07 04:12:20;;;;;;;7.50;1.98;;;2.80;99.90;;;;;;5157882;27;20047;-86
2021/12/07 04:14:47;;;;;;;8.98;2.60;;;2.80;99.90;;;;;;5157054;27;20074;-86
2021/12/07 04:17:14;;;;;;;15.45;3.45;;;2.80;99.90;;;;;;5157611;27;20445;-86
2021/12/07 04:19:42;;;;;;;15.88;4.22;;;2.80;99.90;;;;;;5157974;27;20051;-86
2021/12/07 04:22:09;;;;;;;9.67;2.13;;;3.00;99.90;;;;;;5157467;27;20039;-86
2021/12/07 04:24:36;;;;;;;17.65;2.53;;;2.90;99.90;;;;;;5158113;27;20298;-87
2021/12/07 04:27:05;;;;;;;19.02;2.58;;;2.90;99.90;;;;;;5159167;27;20082;-87
2021/12/07 04:29:32;;;;;;;16.20;3.33;;;3.00;99.90;;;;;;5159684;27;20042;-87
2021/12/07 04:31:59;;;;;;;13.07;3.92;;;3.10;99.90;;;;;;5158459;27;20068;-87
2021/12/07 04:34:26;;;;;;;9.43;2.85;;;3.10;99.90;;;;;;5158969;27;20539;-87
2021/12/07 04:36:54;;;;;;;15.15;2.45;;;3.40;99.90;;;;;;5157873;27;20556;-86
2021/12/07 04:39:21;;;;;;;10.73;2.30;;;3.30;99.90;;;;;;5158014;27;20042;-87
2021/12/07 04:41:50;;;;;;;9.35;2.67;;;4.30;99.90;;;;;;5135923;27;20425;-86
2021/12/07 04:44:18;;;;;;;7.82;1.75;;;3.20;99.90;;;;;;5137136;27;20047;-87
2021/12/07 04:46:51;;;;;;;10.88;2.13;;;3.20;99.90;;;;;;5137163;27;20054;-87
2021/12/07 04:57:43;;;;;;;11.77;2.85;;;3.30;99.90;;;;;;5157484;27;20057;-87
2021/12/07 05:00:14;;;;;;;8.32;2.20;;;3.40;99.90;;;;;;5157505;27;20042;-84
2021/12/07 05:02:44;;;;;;;17.15;2.75;;;3.60;99.90;;;;;;5146801;27;20409;-87
2021/12/07 05:05:14;;;;;;;14.35;4.20;;;3.60;99.90;;;;;;5136434;27;20039;-87
2021/12/07 05:07:48;;;;;;;13.20;2.30;;;3.60;99.90;;;;;;5136167;27;20446;-86
2021/12/07 05:10:29;;;;;;;16.10;3.47;;;3.50;99.90;;;;;;5136284;27;20047;-87
2021/12/07 05:18:36;;;;;;;10.60;2.15;;;3.50;99.90;;;;;;5156852;27;20054;-87
2021/12/07 05:24:04;;;;;;;15.60;2.63;;;3.60;99.90;;;;;;5118166;27;20034;-86
2021/12/07 05:37:50;;;;;;;9.90;2.72;;;3.80;99.90;;;;;;5136084;27;20377;-86
2021/12/07 05:40:21;;;;;;;17.80;2.95;;;3.50;99.90;;;;;;5135934;27;20108;-86
2021/12/07 05:42:48;;;;;;;15.40;2.13;;;3.50;99.90;;;;;;5135454;27;20489;-86
2021/12/07 05:45:17;;;;;;;10.65;1.80;;;3.50;99.90;;;;;;5146863;27;20042;-86
2021/12/07 05:47:44;;;;;;;8.60;2.00;;;3.60;99.90;;;;;;5155817;27;20553;-86
2021/12/07 05:50:13;;;;;;;19.63;3.15;;;3.70;99.90;;;;;;5156249;27;20038;-85
2021/12/07 05:52:40;;;;;;;18.60;2.15;;;3.80;99.90;;;;;;5156063;27;20042;-85
2021/12/07 05:55:09;;;;;;;12.50;2.08;;;3.50;99.90;;;;;;5145486;27;20420;-86
2021/12/07 05:57:37;;;;;;;13.25;2.75;;;3.70;99.90;;;;;;5116845;27;20039;-87
2021/12/07 06:00:07;;;;;;;14.05;2.38;;;3.70;99.90;;;;;;5153777;27;20084;-85
2021/12/07 06:02:35;;;;;;;18.80;3.70;;;3.80;99.90;;;;;;5155756;27;20082;-86
2021/12/07 06:05:02;;;;;;;9.93;2.35;;;3.80;99.90;;;;;;5155796;27;20054;-86
2021/12/07 06:07:29;;;;;;;15.65;2.50;;;3.80;99.90;;;;;;5155230;27;20091;-85
2021/12/07 06:09:56;;;;;;;14.85;3.25;;;3.80;99.90;;;;;;5156348;27;20046;-86
2021/12/07 06:12:23;;;;;;;10.95;2.28;;;3.90;99.90;;;;;;5152206;27;20481;-86
2021/12/07 06:14:55;;;;;;;15.23;1.95;;;3.80;99.90;;;;;;5151469;27;20096;-85
2021/12/07 06:17:23;;;;;;;20.80;3.20;;;3.90;99.90;;;;;;5155179;27;20129;-86
2021/12/07 06:19:50;;;;;;;11.77;3.33;;;4.10;99.90;;;;;;5156030;27;20077;-86
2021/12/07 06:22:17;;;;;;;11.73;1.77;;;4.10;99.90;;;;;;5143986;27;20057;-86
2021/12/07 06:24:45;;;;;;;13.02;2.20;;;4.10;99.90;;;;;;5116766;27;20485;-86
2021/12/07 06:27:12;;;;;;;14.00;2.22;;;3.70;99.90;;;;;;5117353;27;20043;-86
2021/12/07 06:29:40;;;;;;;11.15;2.30;;;4.10;99.90;;;;;;5135095;27;20066;-85
2021/12/07 06:32:09;;;;;;;12.18;2.50;;;4.10;99.90;;;;;;5145002;27;20046;-86
2021/12/07 06:34:37;;;;;;;6.85;2.10;;;4.10;99.90;;;;;;5137289;27;20081;-86
2021/12/07 06:37:06;;;;;;;12.32;3.28;;;4.10;99.90;;;;;;5158170;27;20445;-86
2021/12/07 06:39:34;;;;;;;16.23;3.67;;;4.10;99.90;;;;;;5160034;27;20042;-86
2021/12/07 06:42:01;;;;;;;9.25;2.55;;;4.10;99.90;;;;;;5152920;27;20045;-86
2021/12/07 06:44:28;;;;;;;15.95;2.08;;;4.20;99.90;;;;;;5137232;27;20409;-86
2021/12/07 06:46:56;;;;;;;12.68;2.63;;;4.20;99.90;;;;;;5134901;27;20083;-86
2021/12/07 06:49:24;;;;;;;11.63;1.90;;;4.20;99.90;;;;;;5134468;27;20493;-86
2021/12/07 06:51:51;;;;;;;11.33;2.97;;;4.20;99.90;;;;;;5135468;27;20107;-86
2021/12/07 06:54:19;;;;;;;9.82;3.20;;;4.20;99.90;;;;;;5134461;28;20047;-86
2021/12/07 06:56:46;;;;;;;11.70;4.40;;;4.20;99.90;;;;;;5135024;28;20072;-86
2021/12/07 06:59:14;;;;;;;16.15;2.20;;;4.20;99.90;;;;;;5146561;27;20050;-86
2021/12/07 07:01:41;;;;;;;14.40;2.75;;;4.20;99.90;;;;;;5154427;27;20049;-86
2021/12/07 07:04:08;;;;;;;9.75;1.70;;;4.20;99.90;;;;;;5155111;27;20047;-86
2021/12/07 07:06:37;;;;;;;9.88;3.40;;;4.30;99.90;;;;;;5155125;27;20053;-86
2021/12/07 07:09:05;;;;;;;16.42;3.05;;;4.30;99.90;;;;;;5155542;27;20408;-86
2021/12/07 07:11:33;;;;;;;6.05;1.55;;;4.30;99.90;;;;;;5137236;27;20043;-86
2021/12/07 07:14:00;;;;;;;9.95;2.00;;;4.40;99.90;;;;;;5134728;28;20079;-86
2021/12/07 07:16:27;;;;;;;14.10;2.83;;;4.50;99.90;;;;;;5145491;27;20051;-86
2021/12/07 07:18:55;;;;;;;12.18;3.05;;;4.50;99.90;;;;;;5155447;27;20050;-85
2021/12/07 07:21:22;;;;;;;7.95;2.40;;;4.50;99.90;;;;;;5155444;27;20042;-86
2021/12/07 07:23:51;;;;;;;13.55;2.95;;;4.50;99.90;;;;;;5155411;27;20038;-86
2021/12/07 07:26:18;;;;;;;9.98;2.40;;;4.50;99.90;;;;;;5141654;27;20074;-86
2021/12/07 07:28:46;;;;;;;14.15;3.85;;;4.60;99.90;;;;;;5136050;27;20103;-86
2021/12/07 07:31:14;;;;;;;16.33;3.53;;;4.60;99.90;;;;;;5159451;27;20039;-85
2021/12/07 07:33:41;;;;;;;8.65;1.98;;;4.60;99.90;;;;;;5158778;27;20042;-86
2021/12/07 07:36:08;;;;;;;10.52;2.00;;;4.70;99.90;;;;;;5144734;27;20051;-86
2021/12/07 07:38:35;;;;;;;10.90;2.45;;;4.70;99.90;;;;;;5120267;27;20081;-87
2021/12/07 07:41:04;;;;;;;20.02;2.83;;;4.70;99.90;;;;;;5139326;27;20070;-86
2021/12/07 07:43:32;;;;;;;18.02;2.60;;;4.70;99.90;;;;;;5154661;27;20068;-86
2021/12/07 07:46:00;;;;;;;8.95;2.67;;;4.80;99.90;;;;;;5148308;27;20046;-86
2021/12/07 07:48:27;;;;;;;18.10;2.70;;;4.80;99.90;;;;;;5180255;27;20046;-86
2021/12/07 07:50:54;;;;;;;9.18;2.47;;;4.80;99.90;;;;;;5167571;27;20042;-87
2021/12/07 07:53:22;;;;;;;15.98;2.50;;;4.80;99.90;;;;;;5158704;27;20042;-86
2021/12/07 07:55:50;;;;;;;9.02;2.85;;;4.80;99.90;;;;;;5157274;27;20074;-85
2021/12/07 07:58:19;;;;;;;13.88;2.28;;;4.80;99.90;;;;;;5124962;27;20439;-86
2021/12/07 08:00:47;;;;;;;;;;;4.80;99.90;;;;;;5142880;27;20425;-86
2021/12/07 08:03:14;;;;;;;18.25;3.90;;;4.80;99.90;;;;;;5139372;27;19923;-86
2021/12/07 08:05:41;;;;;;;11.98;3.15;;;4.90;99.90;;;;;;5149402;27;20619;-86
2021/12/07 08:08:08;;;;;;;12.18;3.03;;;4.90;99.90;;;;;;5154631;27;20144;-87
2021/12/07 08:10:35;;;;;;;13.80;3.08;;;5.00;99.90;;;;;;5144751;27;20051;-86
2021/12/07 08:13:06;;;;;;;19.15;2.85;;;5.00;99.90;;;;;;5145346;27;20076;-86
2021/12/07 08:15:41;;;;;;;19.20;3.35;;;5.00;99.90;;;;;;5142794;27;20047;-87
2021/12/07 08:18:08;;;;;;;16.55;2.97;;;5.00;99.90;;;;;;5138823;27;20050;-85
2021/12/07 08:20:36;;;;;;;12.55;2.47;;;5.10;99.90;;;;;;5152132;27;20094;-85
2021/12/07 08:23:04;;;;;;;12.15;2.03;;;5.20;99.90;;;;;;5142889;27;20111;-85
2021/12/07 08:25:33;;;;;;;7.78;1.13;;;5.30;99.90;;;;;;5147173;27;20058;-85
2021/12/07 08:28:00;;;;;;;16.38;3.55;;;5.30;99.90;;;;;;5152938;27;20086;-85
2021/12/07 08:30:42;;;;;;;9.98;2.17;;;5.30;99.90;;;;;;5144125;27;20043;-87
2021/12/07 08:33:22;;;;;;;15.10;2.80;;;5.40;99.90;;;;;;5147588;27;20412;-83
2021/12/07 08:35:49;;;;;;;16.35;3.70;;;5.30;99.90;;;;;;5103391;28;20405;-86
2021/12/07 08:38:17;;;;;;;13.50;2.22;;;5.60;99.90;;;;;;5098266;28;20055;-88
2021/12/07 08:40:45;;;;;;;15.18;2.03;;;5.60;99.90;;;;;;5112399;28;20139;-87
2021/12/07 08:43:13;;;;;;;15.50;2.38;;;5.40;99.90;;;;;;5093365;27;20059;-84
2021/12/07 08:45:43;;;;;;;18.13;3.00;;;5.40;99.90;;;;;;5113670;27;20540;-85
2021/12/07 08:48:10;;;;;;;13.00;2.55;;;5.40;99.90;;;;;;5097903;28;20075;-83
2021/12/07 08:50:41;;;;;;;12.80;1.77;;;5.50;99.90;;;;;;5059719;28;20044;-83
2021/12/07 08:53:12;;;;;;;9.52;1.30;;;5.70;99.90;;;;;;5089449;27;20409;-87
2021/12/07 09:01:24;;;;;;;11.73;2.03;;;6.00;99.90;;;;;;5053111;28;20075;-84
2021/12/07 09:03:53;;;;;;;7.90;1.50;;;5.60;99.90;;;;;;5036708;27;20138;-85
2021/12/07 09:06:20;;;;;;;;;;;5.70;99.90;;;;;;5099306;27;20147;-85
2021/12/07 09:08:47;;;;;;;8.90;1.85;;;5.70;99.90;;;;;;5083864;28;19965;-85
2021/12/07 09:11:15;;;;;;;14.63;2.28;;;5.70;99.90;;;;;;5007444;27;20718;-85
2021/12/07 09:13:43;;;;;;;14.63;2.03;;;6.10;99.90;;;;;;5001983;28;20776;-83
2021/12/07 09:16:12;;;;;;;5.43;1.83;;;5.70;99.90;;;;;;5001061;28;20125;-83
2021/12/07 09:18:40;;;;;;;9.02;1.67;;;5.70;99.90;;;;;;5004856;28;20101;-82
2021/12/07 09:21:08;;;;;;;12.25;1.98;;;5.70;99.90;;;;;;5001559;28;20040;-86
2021/12/07 09:23:36;;;;;;;11.43;2.40;;;5.70;99.90;;;;;;5010694;28;20495;-85
2021/12/07 09:26:05;;;;;;;7.57;1.70;;;5.70;99.90;;;;;;4998611;28;20984;-84
2021/12/07 09:28:32;;;;;;;15.57;2.28;;;5.70;99.90;;;;;;4993668;28;20051;-85
2021/12/07 09:30:59;;;;;;;10.60;1.70;;;5.70;99.90;;;;;;4999091;28;20058;-84
2021/12/07 09:33:30;;;;;;;9.38;1.30;;;5.70;99.90;;;;;;5000553;27;20468;-84
2021/12/07 09:35:59;;;;;;;13.60;2.50;;;5.70;99.90;;;;;;5037568;27;20046;-84
2021/12/07 09:38:26;;;;;;;15.35;2.72;;;5.80;99.90;;;;;;5047416;27;21549;-83
2021/12/07 09:40:54;;;;;;;11.90;1.63;;;5.80;99.90;;;;;;5041728;27;20466;-83
2021/12/07 09:43:22;;;;;;;9.68;2.13;;;5.90;99.90;;;;;;5036779;27;20049;-83
2021/12/07 09:45:50;;;;;;;5.13;1.05;;;5.90;99.90;;;;;;5040958;27;21820;-84
2021/12/07 09:48:18;;;;;;;12.55;1.77;;;5.90;99.90;;;;;;5051864;27;20053;-84
2021/12/07 09:50:48;;;;;;;18.40;2.45;;;6.00;99.90;;;;;;5041793;27;20050;-84
2021/12/07 09:53:24;;;;;;;;;;;5.10;99.90;;;;;;5047221;27;20142;-83
2021/12/07 09:55:52;;;;;;;16.83;2.38;;;6.30;99.90;;;;;;5056404;27;19915;-85
2021/12/07 09:58:20;;;;;;;12.75;2.88;;;6.10;99.90;;;;;;5024248;27;20542;-84
2021/12/07 10:00:48;;;;;;;7.97;1.75;;;6.30;99.90;;;;;;5051507;27;20034;-85
2021/12/07 10:03:18;;;;;;;6.07;1.27;;;6.40;99.90;;;;;;5044997;27;20335;-85
2021/12/07 10:05:45;;;;;;;;;;;6.20;99.90;;;;;;5122623;27;20419;-84
2021/12/07 10:08:22;;;;;;;3.22;0.80;;;6.20;99.90;;;;;;5110491;27;19954;-85
2021/12/07 10:10:55;;;;;;;8.93;1.88;;;7.50;99.90;;;;;;5047328;27;20123;-87
2021/12/07 10:13:24;;;;;;;12.60;1.95;;;6.30;99.90;;;;;;5045247;27;20181;-86
2021/12/07 10:15:53;;;;;;;;;;;6.30;99.90;;;;;;5139525;27;20106;-87
2021/12/07 10:18:22;;;;;;;10.20;1.85;;;6.30;99.90;;;;;;5140573;27;19927;-86
2021/12/07 10:20:53;;;;;;;11.18;2.22;;;6.40;99.90;;;;;;5135518;27;20045;-85
2021/12/07 10:23:38;;;;;;;14.82;3.00;;;6.40;99.90;;;;;;5113317;27;20043;-85
2021/12/07 10:26:09;;;;;;;17.85;2.40;;;6.60;99.90;;;;;;5042653;27;20598;-86
2021/12/07 10:28:39;;;;;;;16.70;2.70;;;6.60;99.90;;;;;;5049098;27;20053;-85
2021/12/07 10:32:03;;;;;;;15.50;2.08;;;6.50;99.90;;;;;;5107187;27;20525;-84
2021/12/07 10:34:36;;;;;;;12.77;1.60;;;6.50;99.90;;;;;;5134265;27;20058;-85
2021/12/07 10:37:08;;;;;;;8.85;1.55;;;6.50;99.90;;;;;;5143980;27;20047;-86
2021/12/07 10:39:40;;;;;;;13.15;1.77;;;6.50;99.90;;;;;;5140237;27;20046;-87
2021/12/07 10:42:09;;;;;;;15.77;2.10;;;6.50;99.90;;;;;;5141947;27;20087;-86
2021/12/07 10:44:44;;;;;;;11.32;2.22;;;6.50;99.90;;;;;;5135361;27;20123;-87
2021/12/07 10:47:12;;;;;;;11.50;2.60;;;6.50;99.90;;;;;;5130850;27;20130;-85
2021/12/07 10:49:43;;;;;;;17.70;2.85;;;4.90;99.90;;;;;;5133173;27;20503;-84
2021/12/07 10:52:26;;;;;;;19.77;3.03;;;6.70;99.90;;;;;;5137213;27;20043;-85
2021/12/07 10:55:02;;;;;;;5.45;1.25;;;6.60;99.90;;;;;;5132826;27;20050;-86
2021/12/07 10:57:32;;;;;;;10.13;1.52;;;6.70;99.90;;;;;;5135285;27;20043;-83
2021/12/07 11:00:21;;;;;;;17.80;3.22;;;6.70;99.90;;;;;;5142129;27;20393;-84
2021/12/07 11:02:51;;;;;;;9.73;1.65;;;6.70;99.90;;;;;;5134753;27;20047;-86
2021/12/07 11:05:25;;;;;;;16.15;2.03;;;6.80;99.90;;;;;;5142739;27;20050;-87
2021/12/07 11:07:53;;;;;;;14.35;2.33;;;6.80;99.90;;;;;;5141817;27;20042;-87
2021/12/07 11:10:29;;;;;;;15.63;2.65;;;6.80;99.90;;;;;;5138446;27;20078;-86
2021/12/07 11:13:01;;;;;;;3.17;1.23;;;6.80;99.90;;;;;;5140271;27;20054;-86
2021/12/07 11:15:30;;;;;;;13.95;2.33;;;6.90;99.90;;;;;;5140227;27;20042;-86
2021/12/07 11:17:59;;;;;;;12.00;2.05;;;6.80;99.90;;;;;;5134651;27;20133;-87
2021/12/07 11:20:28;;;;;;;13.90;2.95;;;6.80;99.90;;;;;;5137804;27;20063;-87
2021/12/07 11:22:58;;;;;;;15.20;1.85;;;6.80;99.90;;;;;;5139068;27;20753;-86
2021/12/07 11:25:53;;;;;;;14.85;3.17;;;6.70;99.90;;;;;;5141743;27;20127;-87
2021/12/07 11:31:16;;;;;;;8.75;2.28;;;6.70;99.90;;;;;;5130305;27;20601;-87
2021/12/07 11:33:43;;;;;;;7.10;1.35;;;6.70;99.90;;;;;;5126923;27;20078;-86
2021/12/07 11:36:24;;;;;;;7.30;1.83;;;6.80;99.90;;;;;;5132192;27;20043;-86
2021/12/07 11:38:52;;;;;;;9.80;2.05;;;6.60;99.90;;;;;;5132108;27;20050;-87
2021/12/07 11:41:25;;;;;;;16.23;2.33;;;6.70;99.90;;;;;;5139313;27;20150;-85
2021/12/07 11:43:59;;;;;;;24.10;9.25;;;6.70;99.90;;;;;;5135358;27;20133;-85
2021/12/07 11:46:29;;;;;;;9.38;2.17;;;6.70;99.90;;;;;;5135575;27;20074;-85
2021/12/07 11:49:19;;;;;;;;;;;6.70;99.90;;;;;;5136698;27;20138;-86
2021/12/07 11:51:48;;;;;;;19.92;1.90;;;6.80;99.90;;;;;;5132179;27;19919;-87
2021/12/07 11:54:18;;;;;;;8.35;2.00;;;6.80;99.90;;;;;;5143928;27;20088;-87
2021/12/07 11:56:48;;;;;;;6.45;1.88;;;6.80;99.90;;;;;;5143435;27;20780;-84
2021/12/07 11:59:16;;;;;;;14.27;2.30;;;6.80;99.90;;;;;;5140210;27;20451;-86
2021/12/07 12:01:45;;;;;;;6.65;1.77;;;6.80;99.90;;;;;;5127935;27;20054;-86
2021/12/07 12:04:12;;;;;;;8.00;2.00;;;7.20;99.90;;;;;;5128876;27;20062;-85
2021/12/07 12:06:43;;;;;;;9.85;1.98;;;6.90;99.90;;;;;;5136902;27;20496;-86
2021/12/07 12:09:11;;;;;;;6.85;1.05;;;7.10;99.90;;;;;;5142535;27;20360;-85
2021/12/07 12:11:52;;;;;;;16.98;2.33;;;7.00;99.90;;;;;;5135873;27;20053;-85
2021/12/07 12:14:48;;;;;;;11.20;2.15;;;8.30;99.90;;;;;;5134626;27;20153;-86
2021/12/07 12:17:25;;;;;;;9.00;1.73;;;7.10;99.90;;;;;;5130790;27;20124;-86
2021/12/07 12:20:10;;;;;;;9.82;1.98;;;7.10;99.90;;;;;;5135669;27;20035;-85
2021/12/07 12:22:41;;;;;;;9.88;1.92;;;7.20;99.90;;;;;;5139647;27;20067;-86
2021/12/07 12:25:11;;;;;;;6.00;1.45;;;7.20;99.90;;;;;;5141668;27;20051;-85
2021/12/07 12:27:41;;;;;;;11.80;1.20;;;7.30;99.90;;;;;;5133912;27;20060;-87
2021/12/07 12:30:20;;;;;;;6.28;1.70;;;7.30;99.90;;;;;;5133496;27;20039;-88
2021/12/07 12:32:53;;;;;;;5.68;1.95;;;7.40;99.90;;;;;;5136096;27;20051;-86
2021/12/07 12:35:28;;;;;;;6.85;1.23;;;7.40;99.90;;;;;;5137674;27;20050;-87
2021/12/07 12:37:57;;;;;;;9.07;2.13;;;7.40;99.90;;;;;;5141038;27;20054;-87
2021/12/07 12:40:28;;;;;;;11.98;1.00;;;7.50;99.90;;;;;;5147066;27;20096;-88
2021/12/07 12:42:58;;;;;;;11.43;2.40;;;7.70;99.90;;;;;;5146250;27;20039;-88
2021/12/07 12:45:29;;;;;;;10.57;1.83;;;7.60;99.90;;;;;;5152947;27;20088;-87
2021/12/07 12:47:58;;;;;;;6.53;1.00;;;7.60;99.90;;;;;;5145178;27;20043;-88
2021/12/07 12:50:30;;;;;;;4.60;1.13;;;7.60;99.90;;;;;;5146624;27;20076;-88
2021/12/07 12:53:02;;;;;;;4.38;1.33;;;7.60;99.90;;;;;;5148204;27;20047;-89
2021/12/07 12:55:34;;;;;;;3.00;0.88;;;7.80;99.90;;;;;;5140181;27;20454;-89
2021/12/07 12:58:05;;;;;;;13.80;1.25;;;7.70;99.90;;;;;;5143756;27;20051;-88
2021/12/07 13:01:09;;;;;;;12.15;3.38;;;7.70;99.90;;;;;;5133228;27;20048;-90
2021/12/07 13:03:54;;;;;;;11.55;1.67;;;7.70;99.90;;;;;;5139847;27;20051;-86
2021/12/07 13:06:40;;;;;;;2.53;0.70;;;7.70;99.90;;;;;;5142762;27;20058;-88
2021/12/07 13:09:10;;;;;;;15.32;1.73;;;7.70;99.90;;;;;;5141624;27;20092;-89
2021/12/07 13:11:39;;;;;;;8.98;1.10;;;7.80;99.90;;;;;;5141707;27;20102;-88
2021/12/07 13:14:12;;;;;;;4.07;0.82;;;7.90;99.90;;;;;;5137474;27;20091;-87
2021/12/07 13:16:47;;;;;;;6.43;1.45;;;7.80;99.90;;;;;;5113733;27;20048;-88
2021/12/07 13:19:15;;;;;;;3.00;0.95;;;7.80;99.90;;;;;;5134189;27;20099;-89
2021/12/07 13:21:44;;;;;;;5.82;1.63;;;8.00;99.90;;;;;;5149426;27;20056;-88
2021/12/07 13:24:12;;;;;;;5.18;1.63;;;7.80;99.90;;;;;;5150274;27;20113;-87
2021/12/07 13:26:42;;;;;;;7.72;1.77;;;7.70;99.90;;;;;;5140204;27;20051;-88
2021/12/07 13:29:15;;;;;;;11.30;1.48;;;7.80;99.90;;;;;;5150286;27;20050;-89
2021/12/07 13:31:46;;;;;;;8.00;0.95;;;7.80;99.90;;;;;;5140722;27;20534;-88
2021/12/07 13:34:15;;;;;;;11.52;1.50;;;7.80;99.90;;;;;;5154447;27;20055;-88
2021/12/07 13:36:47;;;;;;;7.13;1.40;;;7.70;99.90;;;;;;5146154;27;20039;-89
2021/12/07 13:39:31;;;;;;;6.30;1.50;;;7.60;99.90;;;;;;5128819;27;20062;-88
2021/12/07 13:42:02;;;;;;;10.00;1.63;;;8.10;99.90;;;;;;5135734;27;20039;-88
2021/12/07 13:44:33;;;;;;;4.35;1.52;;;7.60;99.90;;;;;;5138617;27;20071;-89
2021/12/07 13:47:03;;;;;;;5.32;1.50;;;7.60;99.90;;;;;;5141414;27;20040;-88
2021/12/07 13:49:33;;;;;;;11.90;2.20;;;7.60;99.90;;;;;;5148706;27;20046;-88
2021/12/07 13:52:04;;;;;;;5.75;1.58;;;7.60;99.90;;;;;;5147666;27;20042;-90
2021/12/07 13:54:31;;;;;;;6.07;1.70;;;7.50;99.90;;;;;;5122392;27;20378;-87
2021/12/07 13:57:02;;;;;;;11.10;1.70;;;7.70;99.90;;;;;;5106618;27;20051;-88
2021/12/07 13:59:34;;;;;;;12.90;2.72;;;8.20;99.90;;;;;;5148476;27;20050;-88
2021/12/07 14:02:01;;;;;;;13.98;4.82;;;7.60;99.90;;;;;;5135069;27;20159;-88
2021/12/07 14:04:29;;;;;;;13.48;2.53;;;7.50;99.90;;;;;;5100264;27;20783;-87
2021/12/07 14:06:57;;;;;;;9.02;2.13;;;7.30;99.90;;;;;;5079731;27;20119;-87
2021/12/07 14:09:25;;;;;;;12.18;3.30;;;7.20;99.90;;;;;;5140576;27;20430;-86
2021/12/07 14:11:53;;;;;;;14.35;3.90;;;7.20;99.90;;;;;;5134011;27;20043;-85
2021/12/07 14:14:23;;;;;;;4.82;1.27;;;7.20;99.90;;;;;;5137945;27;20054;-87
2021/12/07 14:16:55;;;;;;;7.55;1.58;;;7.20;99.90;;;;;;5135656;27;20058;-85
2021/12/07 14:19:44;;;;;;;7.57;1.38;;;7.20;99.90;;;;;;5136003;27;20051;-87
2021/12/07 14:22:22;;;;;;;8.00;1.40;;;6.40;99.90;;;;;;5138847;27;20050;-90
2021/12/07 14:24:53;;;;;;;10.32;1.83;;;7.50;99.90;;;;;;5134541;27;20050;-87
2021/12/07 14:27:23;;;;;;;8.27;1.83;;;7.00;99.90;;;;;;5128138;27;20040;-86
2021/12/07 14:30:09;;;;;;;12.60;2.42;;;5.30;99.90;;;;;;5139358;27;20652;-88
2021/12/07 14:32:53;;;;;;;12.32;2.13;;;7.50;99.90;;;;;;5129110;27;20043;-88
2021/12/07 14:35:23;;;;;;;11.57;1.67;;;7.50;99.90;;;;;;5139252;27;20066;-87
2021/12/07 14:37:54;;;;;;;9.85;1.38;;;7.10;99.90;;;;;;5132897;27;20057;-87